createdAt,value
2022-10-22T00:01:53.473Z,16.20
2022-10-22T00:04:20.097Z,16.20
2022-10-22T00:06:46.786Z,16.20
2022-10-22T00:09:14.828Z,16.20
2022-10-22T00:11:42.499Z,16.20
2022-10-22T00:14:09.402Z,16.10
2022-10-22T00:16:36.094Z,16.10
2022-10-22T00:19:02.952Z,16.10
2022-10-22T00:21:30.694Z,16.10
2022-10-22T00:23:57.308Z,16.20
2022-10-22T00:26:23.989Z,16.10
2022-10-22T00:28:50.664Z,16.20
2022-10-22T00:31:19.140Z,16.20
2022-10-22T00:33:48.811Z,16.10
2022-10-22T00:36:16.531Z,16.20
2022-10-22T00:38:43.426Z,16.10
2022-10-22T00:41:10.154Z,16.10
2022-10-22T00:44:01.226Z,16.10
2022-10-22T00:46:30.339Z,16.20
2022-10-22T00:48:59.064Z,16.20
2022-10-22T00:51:30.031Z,16.20
2022-10-22T00:54:02.883Z,16.30
2022-10-22T00:56:29.693Z,16.20
2022-10-22T00:58:59.478Z,16.20
2022-10-22T01:01:31.792Z,16.20
2022-10-22T01:03:59.029Z,16.20
2022-10-22T01:06:34.550Z,16.20
2022-10-22T01:09:06.844Z,16.10
2022-10-22T01:11:38.068Z,16.10
2022-10-22T01:14:29.706Z,16.10
2022-10-22T01:17:08.202Z,16.10
2022-10-22T01:19:57.806Z,16.00
2022-10-22T01:22:45.875Z,15.90
2022-10-22T01:25:30.867Z,15.80
2022-10-22T01:28:22.663Z,15.80
2022-10-22T01:30:53.402Z,15.70
2022-10-22T01:33:22.974Z,15.70
2022-10-22T01:35:50.005Z,15.70
2022-10-22T01:38:21.095Z,15.60
2022-10-22T01:40:49.435Z,15.70
2022-10-22T01:43:16.673Z,15.70
2022-10-22T01:45:49.317Z,15.80
2022-10-22T01:48:50.485Z,15.70
2022-10-22T01:51:44.898Z,15.70
2022-10-22T01:54:30.218Z,15.70
2022-10-22T01:57:11.251Z,15.70
2022-10-22T02:00:09.651Z,15.70
2022-10-22T02:02:39.092Z,15.60
2022-10-22T02:05:05.943Z,15.60
2022-10-22T02:07:37.464Z,15.60
2022-10-22T02:10:07.444Z,15.60
2022-10-22T02:12:35.135Z,15.60
2022-10-22T02:15:04.551Z,15.60
2022-10-22T02:17:34.757Z,15.50
2022-10-22T02:20:08.042Z,15.50
2022-10-22T02:22:36.967Z,15.60
2022-10-22T02:25:05.259Z,15.50
2022-10-22T02:27:47.065Z,15.50
2022-10-22T02:30:19.356Z,15.50
2022-10-22T02:33:04.417Z,15.60
2022-10-22T02:35:31.765Z,15.40
2022-10-22T02:37:59.751Z,15.40
2022-10-22T02:40:27.952Z,15.40
2022-10-22T02:42:54.662Z,15.30
2022-10-22T02:45:21.694Z,15.30
2022-10-22T02:47:48.647Z,15.30
2022-10-22T02:50:15.421Z,15.30
2022-10-22T02:52:42.504Z,15.30
2022-10-22T02:55:09.666Z,15.40
2022-10-22T02:57:36.485Z,15.40
2022-10-22T03:00:08.355Z,15.40
2022-10-22T03:02:35.335Z,15.40
2022-10-22T03:05:02.035Z,15.50
2022-10-22T03:07:28.675Z,15.50
2022-10-22T03:09:55.291Z,15.60
2022-10-22T03:12:21.932Z,15.60
2022-10-22T03:14:48.575Z,15.60
2022-10-22T03:17:15.229Z,15.60
2022-10-22T03:19:42.165Z,15.70
2022-10-22T03:22:20.177Z,15.70
2022-10-22T03:24:48.971Z,15.70
2022-10-22T03:27:18.279Z,15.70
2022-10-22T03:29:46.844Z,15.70
2022-10-22T03:32:13.741Z,15.70
2022-10-22T03:34:40.391Z,15.70
2022-10-22T03:37:07.150Z,15.60
2022-10-22T03:39:34.929Z,15.50
2022-10-22T03:42:03.124Z,15.50
2022-10-22T03:44:30.562Z,15.40
2022-10-22T03:47:00.063Z,15.40
2022-10-22T03:49:29.155Z,15.50
2022-10-22T03:51:55.822Z,15.50
2022-10-22T03:54:22.495Z,15.50
2022-10-22T03:56:49.159Z,15.30
2022-10-22T03:59:16.137Z,15.20
2022-10-22T04:01:42.762Z,15.20
2022-10-22T04:04:09.447Z,15.20
2022-10-22T04:06:36.076Z,15.10
2022-10-22T04:09:02.869Z,15.20
2022-10-22T04:11:29.630Z,15.20
2022-10-22T04:13:56.272Z,15.20
2022-10-22T04:16:26.151Z,15.20
2022-10-22T04:18:55.333Z,15.20
2022-10-22T04:21:21.975Z,15.20
2022-10-22T04:23:51.817Z,15.20
2022-10-22T04:26:19.843Z,15.20
2022-10-22T04:28:48.153Z,15.20
2022-10-22T04:31:17.041Z,15.30
2022-10-22T04:33:43.732Z,15.30
2022-10-22T04:36:16.180Z,15.20
2022-10-22T04:38:44.788Z,15.20
2022-10-22T04:41:14.806Z,15.30
2022-10-22T04:43:42.030Z,15.20
2022-10-22T04:46:09.376Z,15.10
2022-10-22T04:48:37.036Z,15.20
2022-10-22T04:51:04.968Z,15.20
2022-10-22T04:53:31.606Z,15.20
2022-10-22T04:56:23.000Z,15.20
2022-10-22T04:58:51.642Z,15.20
2022-10-22T05:01:27.004Z,15.20
2022-10-22T05:03:55.827Z,15.30
2022-10-22T05:06:23.980Z,15.30
2022-10-22T05:08:59.217Z,15.30
2022-10-22T05:11:30.102Z,15.30
2022-10-22T05:13:57.813Z,15.20
2022-10-22T05:16:25.117Z,15.20
2022-10-22T05:18:51.762Z,15.20
2022-10-22T05:21:20.265Z,15.20
2022-10-22T05:23:48.781Z,15.10
2022-10-22T05:26:20.700Z,15.20
2022-10-22T05:28:49.103Z,15.20
2022-10-22T05:31:16.600Z,15.20
2022-10-22T05:33:44.307Z,15.20
2022-10-22T05:36:19.629Z,15.20
2022-10-22T05:38:47.154Z,15.20
2022-10-22T05:41:22.389Z,15.10
2022-10-22T05:43:49.704Z,15.20
2022-10-22T05:46:22.705Z,15.10
2022-10-22T05:48:57.810Z,15.10
2022-10-22T05:51:24.959Z,15.10
2022-10-22T05:53:56.700Z,15.10
2022-10-22T05:56:23.948Z,15.20
2022-10-22T05:58:51.187Z,15.10
2022-10-22T06:01:19.700Z,15.00
2022-10-22T06:03:46.831Z,15.00
2022-10-22T06:06:22.005Z,15.00
2022-10-22T06:08:51.001Z,14.90
2022-10-22T06:11:19.122Z,15.00
2022-10-22T06:13:46.354Z,14.90
2022-10-22T06:16:13.795Z,14.90
2022-10-22T06:18:40.794Z,14.80
2022-10-22T06:21:10.207Z,14.90
2022-10-22T06:23:38.240Z,14.80
2022-10-22T06:26:05.371Z,14.80
2022-10-22T06:28:32.201Z,14.80
2022-10-22T06:31:00.390Z,14.90
2022-10-22T06:33:28.887Z,14.80
2022-10-22T06:35:55.727Z,14.80
2022-10-22T06:38:22.355Z,14.80
2022-10-22T06:40:48.991Z,14.80
2022-10-22T06:43:15.646Z,14.80
2022-10-22T06:45:42.366Z,14.80
2022-10-22T06:48:09.004Z,14.80
2022-10-22T06:50:35.696Z,14.70
2022-10-22T06:53:02.370Z,14.70
2022-10-22T06:55:29.018Z,14.70
2022-10-22T06:57:55.910Z,14.80
2022-10-22T07:00:22.714Z,14.80
2022-10-22T07:02:57.613Z,14.80
2022-10-22T07:05:25.881Z,14.80
2022-10-22T07:07:52.524Z,14.80
2022-10-22T07:10:19.155Z,14.80
2022-10-22T07:12:45.810Z,14.80
2022-10-22T07:15:12.555Z,14.80
2022-10-22T07:20:07.291Z,14.80
2022-10-22T07:22:33.969Z,14.80
2022-10-22T07:25:05.149Z,14.90
2022-10-22T07:27:34.076Z,14.90
2022-10-22T07:30:01.392Z,14.90
2022-10-22T07:32:28.128Z,15.00
2022-10-22T07:34:54.773Z,15.00
2022-10-22T07:37:22.097Z,15.00
2022-10-22T07:39:49.258Z,15.00
2022-10-22T07:42:16.246Z,15.10
2022-10-22T07:44:42.863Z,15.10
2022-10-22T07:47:09.523Z,15.20
2022-10-22T07:49:36.126Z,15.10
2022-10-22T07:52:02.778Z,15.20
2022-10-22T07:54:29.482Z,15.30
2022-10-22T07:56:56.146Z,15.30
2022-10-22T07:59:22.846Z,15.50
2022-10-22T08:01:49.493Z,15.60
2022-10-22T08:04:16.126Z,15.70
2022-10-22T08:06:45.786Z,15.80
2022-10-22T08:09:14.156Z,16.00
2022-10-22T08:11:40.814Z,16.10
2022-10-22T08:14:07.500Z,16.40
2022-10-22T08:16:34.167Z,16.80
2022-10-22T08:19:00.810Z,17.10
2022-10-22T08:21:27.600Z,17.60
2022-10-22T08:23:54.293Z,18.20
2022-10-22T08:26:21.088Z,18.60
2022-10-22T08:28:47.720Z,19.00
2022-10-22T08:31:14.698Z,19.70
2022-10-22T08:33:41.973Z,20.70
2022-10-22T08:36:09.027Z,21.90
2022-10-22T08:38:36.080Z,23.40
2022-10-22T08:41:15.637Z,24.80
2022-10-22T08:44:23.598Z,25.70
2022-10-22T08:47:01.871Z,26.40
2022-10-22T08:49:35.125Z,26.30
2022-10-22T08:52:04.415Z,26.40
2022-10-22T08:54:51.555Z,26.90
2022-10-22T08:57:35.088Z,28.20
2022-10-22T09:00:15.917Z,29.20
2022-10-22T09:02:51.437Z,29.80
2022-10-22T09:05:25.886Z,30.80
2022-10-22T09:07:53.127Z,31.10
2022-10-22T09:10:24.306Z,30.70
2022-10-22T09:12:51.053Z,30.80
2022-10-22T09:15:19.405Z,31.30
2022-10-22T09:18:13.886Z,32.60
2022-10-22T09:20:51.634Z,33.70
2022-10-22T09:23:39.175Z,34.40
2022-10-22T09:26:26.614Z,34.50
2022-10-22T09:28:53.552Z,35.10
2022-10-22T09:31:20.190Z,34.30
2022-10-22T09:33:50.638Z,34.70
2022-10-22T09:36:21.135Z,35.10
2022-10-22T09:38:52.953Z,34.90
2022-10-22T09:41:23.039Z,35.00
2022-10-22T09:43:49.857Z,34.20
2022-10-22T09:46:23.036Z,34.30
2022-10-22T09:49:01.320Z,34.70
2022-10-22T09:51:52.857Z,34.80
2022-10-22T09:54:25.519Z,34.70
2022-10-22T09:56:55.739Z,34.50
2022-10-22T09:59:33.219Z,34.20
2022-10-22T10:02:19.647Z,34.30
2022-10-22T10:04:57.582Z,35.10
2022-10-22T10:07:31.341Z,35.50
2022-10-22T10:09:58.719Z,35.30
2022-10-22T10:12:29.074Z,34.90
2022-10-22T10:15:17.852Z,34.30
2022-10-22T10:17:56.663Z,33.70
2022-10-22T10:20:41.008Z,32.90
2022-10-22T10:23:10.445Z,33.50
2022-10-22T10:26:01.238Z,33.60
2022-10-22T10:29:04.520Z,33.60
2022-10-22T10:31:49.489Z,33.80
2022-10-22T10:34:33.805Z,33.70
2022-10-22T10:37:24.481Z,33.50
2022-10-22T10:40:28.644Z,33.90
2022-10-22T10:43:25.014Z,34.40
2022-10-22T10:46:19.394Z,35.10
2022-10-22T10:48:51.018Z,33.20
2022-10-22T10:51:37.138Z,31.30
2022-10-22T10:54:17.285Z,29.30
2022-10-22T10:56:57.695Z,28.20
2022-10-22T11:00:06.047Z,27.90
2022-10-22T11:02:53.000Z,29.50
2022-10-22T11:05:41.542Z,29.70
2022-10-22T11:08:20.174Z,28.70
2022-10-22T11:10:51.727Z,27.80
2022-10-22T11:13:29.450Z,27.50
2022-10-22T11:16:36.625Z,27.60
2022-10-22T11:19:15.472Z,27.20
2022-10-22T11:22:15.206Z,26.50
2022-10-22T11:24:51.967Z,26.00
2022-10-22T11:27:45.692Z,25.40
2022-10-22T11:30:14.052Z,24.90
2022-10-22T11:32:43.996Z,24.30
2022-10-22T11:35:20.219Z,24.00
2022-10-22T11:37:51.500Z,23.70
2022-10-22T11:40:28.620Z,23.40
2022-10-22T11:43:04.550Z,23.40
2022-10-22T11:45:38.331Z,23.30
2022-10-22T11:48:10.899Z,23.10
2022-10-22T11:50:54.227Z,23.50
2022-10-22T11:53:39.038Z,23.90
2022-10-22T11:56:13.009Z,23.80
2022-10-22T11:58:44.686Z,24.30
2022-10-22T12:01:11.261Z,25.30
2022-10-22T12:03:43.782Z,26.30
2022-10-22T12:06:14.970Z,27.30
2022-10-22T12:08:54.233Z,28.50
2022-10-22T12:11:20.931Z,29.10
2022-10-22T12:14:12.627Z,28.60
2022-10-22T12:16:56.322Z,28.60
2022-10-22T12:19:23.386Z,29.50
2022-10-22T12:21:57.369Z,29.30
2022-10-22T12:24:26.144Z,28.70
2022-10-22T12:26:53.065Z,28.30
2022-10-22T12:29:26.549Z,27.90
2022-10-22T12:31:54.148Z,26.90
2022-10-22T12:34:25.222Z,27.10
2022-10-22T12:36:53.901Z,28.10
2022-10-22T12:39:24.522Z,28.40
2022-10-22T12:41:53.418Z,29.80
2022-10-22T12:44:20.157Z,31.30
2022-10-22T12:46:51.783Z,32.00
2022-10-22T12:49:24.894Z,31.80
2022-10-22T12:51:51.582Z,31.60
2022-10-22T12:54:39.794Z,30.50
2022-10-22T12:57:11.204Z,30.20
2022-10-22T12:59:40.351Z,29.50
2022-10-22T13:02:24.520Z,28.60
2022-10-22T13:05:18.309Z,27.60
2022-10-22T13:07:52.604Z,27.10
2022-10-22T13:10:19.380Z,26.60
2022-10-22T13:12:51.123Z,26.30
2022-10-22T13:15:38.987Z,26.20
2022-10-22T13:18:16.812Z,25.80
2022-10-22T13:21:04.109Z,25.30
2022-10-22T13:23:33.435Z,24.80
2022-10-22T13:26:04.501Z,24.30
2022-10-22T13:28:32.742Z,24.00
2022-10-22T13:31:01.269Z,24.60
2022-10-22T13:33:37.046Z,26.20
2022-10-22T13:36:05.204Z,26.50
2022-10-22T13:38:31.971Z,26.80
2022-10-22T13:40:59.390Z,27.60
2022-10-22T13:43:26.313Z,28.50
2022-10-22T13:45:55.586Z,29.30
2022-10-22T13:48:23.929Z,29.40
2022-10-22T13:50:52.185Z,29.50
2022-10-22T13:53:23.087Z,29.50
2022-10-22T13:55:50.306Z,28.50
2022-10-22T13:58:19.705Z,27.50
2022-10-22T14:00:52.084Z,26.60
2022-10-22T14:03:22.057Z,26.00
2022-10-22T14:05:49.674Z,25.60
2022-10-22T14:08:19.750Z,25.40
2022-10-22T14:10:46.843Z,25.50
2022-10-22T14:13:15.549Z,25.30
2022-10-22T14:15:45.130Z,24.90
2022-10-22T14:18:15.768Z,24.50
2022-10-22T14:20:43.017Z,24.10
2022-10-22T14:25:50.971Z,23.40
2022-10-22T14:28:17.891Z,23.10
2022-10-22T14:30:45.362Z,22.90
2022-10-22T14:33:30.544Z,22.70
2022-10-22T14:35:59.111Z,22.50
2022-10-22T14:38:25.811Z,22.30
2022-10-22T14:40:52.613Z,22.10
2022-10-22T14:43:23.696Z,21.90
2022-10-22T14:45:50.790Z,21.70
2022-10-22T14:50:45.695Z,21.40
2022-10-22T14:53:13.698Z,21.60
2022-10-22T14:55:41.327Z,22.10
2022-10-22T14:58:08.080Z,22.90
2022-10-22T15:00:36.797Z,23.80
2022-10-22T15:03:04.434Z,24.20
2022-10-22T15:05:31.339Z,24.20
2022-10-22T15:07:59.342Z,24.30
2022-10-22T15:10:26.722Z,24.30
2022-10-22T15:12:53.598Z,24.40
2022-10-22T15:15:22.712Z,24.60
2022-10-22T15:17:50.447Z,24.40
2022-10-22T15:20:17.220Z,24.20
2022-10-22T15:22:45.246Z,24.30
2022-10-22T15:25:13.338Z,24.30
2022-10-22T15:27:40.339Z,24.30
2022-10-22T15:30:07.932Z,24.40
2022-10-22T15:32:34.682Z,24.20
2022-10-22T15:35:01.677Z,23.90
2022-10-22T15:37:28.361Z,23.50
2022-10-22T15:39:55.162Z,23.10
2022-10-22T15:42:23.250Z,22.80
2022-10-22T15:44:56.795Z,22.50
2022-10-22T15:47:25.282Z,22.20
2022-10-22T15:49:51.985Z,21.80
2022-10-22T15:52:18.799Z,21.50
2022-10-22T15:54:45.536Z,21.00
2022-10-22T15:57:12.276Z,20.90
2022-10-22T15:59:38.969Z,20.60
2022-10-22T16:02:07.181Z,20.40
2022-10-22T16:04:33.933Z,20.10
2022-10-22T16:07:01.127Z,20.00
2022-10-22T16:09:28.003Z,19.90
2022-10-22T16:11:55.505Z,19.70
2022-10-22T16:14:24.053Z,19.50
2022-10-22T16:16:53.348Z,19.50
2022-10-22T16:19:22.279Z,19.30
2022-10-22T16:21:51.268Z,19.20
2022-10-22T16:24:18.767Z,19.10
2022-10-22T16:26:45.640Z,19.00
2022-10-22T16:29:12.678Z,18.90
2022-10-22T16:31:40.635Z,18.80
2022-10-22T16:34:07.807Z,18.70
2022-10-22T16:36:36.174Z,18.60
2022-10-22T16:39:04.124Z,18.50
2022-10-22T16:41:35.247Z,18.50
2022-10-22T16:44:05.860Z,18.40
2022-10-22T16:46:33.650Z,18.30
2022-10-22T16:49:00.428Z,18.30
2022-10-22T16:51:28.244Z,18.20
2022-10-22T16:53:56.563Z,18.10
2022-10-22T16:56:24.448Z,18.00
2022-10-22T16:58:56.537Z,17.90
2022-10-22T17:01:29.659Z,17.70
2022-10-22T17:03:59.147Z,17.70
2022-10-22T17:06:25.891Z,17.60
2022-10-22T17:08:52.704Z,17.50
2022-10-22T17:11:22.202Z,17.40
2022-10-22T17:13:52.522Z,17.30
2022-10-22T17:16:21.188Z,17.10
2022-10-22T17:18:48.123Z,17.00
2022-10-22T17:21:15.651Z,17.00
2022-10-22T17:23:42.737Z,16.90
2022-10-22T17:26:17.975Z,16.80
2022-10-22T17:28:44.682Z,16.80
2022-10-22T17:31:37.158Z,16.80
2022-10-22T17:34:06.121Z,16.60
2022-10-22T17:36:35.869Z,16.50
2022-10-22T17:39:06.375Z,16.50
2022-10-22T17:41:35.315Z,16.40
2022-10-22T17:44:04.476Z,16.40
2022-10-22T17:46:32.280Z,16.30
2022-10-22T17:49:04.800Z,16.30
2022-10-22T17:51:32.231Z,16.20
2022-10-22T17:53:59.295Z,16.10
2022-10-22T17:56:28.873Z,16.10
2022-10-22T17:58:56.422Z,16.00
2022-10-22T18:01:32.370Z,16.00
2022-10-22T18:04:08.163Z,15.90
2022-10-22T18:06:35.439Z,15.80
2022-10-22T18:09:07.028Z,15.80
2022-10-22T18:11:36.413Z,15.80
2022-10-22T18:14:03.974Z,15.80
2022-10-22T18:16:30.654Z,15.70
2022-10-22T18:18:58.093Z,15.60
2022-10-22T18:21:27.019Z,15.60
2022-10-22T18:23:53.989Z,15.60
2022-10-22T18:26:24.416Z,15.50
2022-10-22T18:28:53.499Z,15.50
2022-10-22T18:31:22.889Z,15.40
2022-10-22T18:33:50.311Z,15.40
2022-10-22T18:36:20.293Z,15.30
2022-10-22T18:39:01.676Z,15.30
2022-10-22T18:41:30.190Z,15.20
2022-10-22T18:43:58.966Z,15.20
2022-10-22T18:46:26.734Z,15.10
2022-10-22T18:48:55.204Z,15.10
2022-10-22T18:51:22.268Z,15.00
2022-10-22T18:54:05.140Z,14.90
2022-10-22T18:56:39.829Z,14.90
2022-10-22T18:59:06.494Z,14.80
2022-10-22T19:01:35.411Z,14.80
2022-10-22T19:04:02.210Z,14.80
2022-10-22T19:06:36.753Z,14.80
2022-10-22T19:09:04.609Z,14.80
2022-10-22T19:11:32.238Z,14.70
2022-10-22T19:13:58.937Z,14.70
2022-10-22T19:16:27.022Z,14.70
2022-10-22T19:18:59.611Z,14.70
2022-10-22T19:21:26.349Z,14.70
2022-10-22T19:23:59.018Z,14.70
2022-10-22T19:26:26.539Z,14.70
2022-10-22T19:28:54.330Z,14.70
2022-10-22T19:31:23.422Z,14.70
2022-10-22T19:33:51.159Z,14.70
2022-10-22T19:36:19.506Z,14.70
2022-10-22T19:38:48.314Z,14.70
2022-10-22T19:41:17.812Z,14.70
2022-10-22T19:43:45.573Z,14.70
2022-10-22T19:46:13.125Z,14.70
2022-10-22T19:48:40.003Z,14.70
2022-10-22T19:51:09.762Z,14.70
2022-10-22T19:53:38.248Z,14.60
2022-10-22T19:56:07.169Z,14.60
2022-10-22T19:58:34.784Z,14.50
2022-10-22T20:01:09.757Z,14.50
2022-10-22T20:03:41.543Z,14.40
2022-10-22T20:06:10.580Z,14.40
2022-10-22T20:08:38.427Z,14.30
2022-10-22T20:11:07.122Z,14.30
2022-10-22T20:13:34.856Z,14.20
2022-10-22T20:16:01.638Z,14.20
2022-10-22T20:18:28.365Z,14.20
2022-10-22T20:20:54.991Z,14.20
2022-10-22T20:23:21.728Z,14.20
2022-10-22T20:25:48.791Z,14.20
2022-10-22T20:28:16.034Z,14.10
2022-10-22T20:30:46.159Z,14.00
2022-10-22T20:33:13.676Z,14.00
2022-10-22T20:35:40.337Z,14.00
2022-10-22T20:38:08.696Z,13.90
2022-10-22T20:40:36.247Z,13.90
2022-10-22T20:43:02.933Z,13.90
2022-10-22T20:45:29.649Z,13.80
2022-10-22T20:48:02.774Z,13.80
2022-10-22T20:50:33.775Z,13.80
2022-10-22T20:53:00.473Z,13.80
2022-10-22T20:55:27.529Z,13.80
2022-10-22T20:57:54.191Z,13.80
2022-10-22T21:00:21.079Z,13.80
2022-10-22T21:02:47.741Z,13.80
2022-10-22T21:05:14.545Z,13.80
2022-10-22T21:07:41.295Z,13.80
2022-10-22T21:10:08.698Z,13.70
2022-10-22T21:12:35.685Z,13.70
2022-10-22T21:15:02.399Z,13.70
2022-10-22T21:17:29.064Z,13.70
2022-10-22T21:19:55.703Z,13.70
2022-10-22T21:22:22.355Z,13.60
2022-10-22T21:24:48.994Z,13.60
2022-10-22T21:27:15.625Z,13.60
2022-10-22T21:29:42.270Z,13.60
2022-10-22T21:32:09.301Z,13.60
2022-10-22T21:34:38.819Z,13.50
2022-10-22T21:37:05.857Z,13.50
2022-10-22T21:39:32.517Z,13.50
2022-10-22T21:41:59.185Z,13.50
2022-10-22T21:44:25.830Z,13.50
2022-10-22T21:46:52.727Z,13.50
2022-10-22T21:49:19.431Z,13.40
2022-10-22T21:51:46.129Z,13.40
2022-10-22T21:54:12.864Z,13.40
2022-10-22T21:56:40.134Z,13.40
2022-10-22T21:59:07.308Z,13.40
2022-10-22T22:01:34.881Z,13.40
2022-10-22T22:04:02.257Z,13.30
2022-10-22T22:06:33.120Z,13.30
2022-10-22T22:09:01.411Z,13.30
2022-10-22T22:11:28.794Z,13.20
2022-10-22T22:13:57.206Z,13.20
2022-10-22T22:16:28.833Z,13.20
2022-10-22T22:18:58.296Z,13.10
2022-10-22T22:21:25.150Z,13.10
2022-10-22T22:23:51.900Z,13.10
2022-10-22T22:26:25.344Z,13.00
2022-10-22T22:28:55.500Z,12.90
2022-10-22T22:31:25.513Z,12.90
2022-10-22T22:33:58.657Z,12.80
2022-10-22T22:36:25.326Z,12.80
2022-10-22T22:38:56.409Z,12.80
2022-10-22T22:41:23.692Z,12.70
2022-10-22T22:43:50.427Z,12.70
2022-10-22T22:46:17.356Z,12.70
2022-10-22T22:48:44.194Z,12.70
2022-10-22T22:51:11.458Z,12.70
2022-10-22T22:53:38.098Z,12.70
2022-10-22T22:56:16.939Z,12.70
2022-10-22T22:58:44.009Z,12.60
2022-10-22T23:01:19.493Z,12.60
2022-10-22T23:03:48.653Z,12.60
2022-10-22T23:06:15.721Z,12.60
2022-10-22T23:08:42.526Z,12.50
2022-10-22T23:11:12.811Z,12.50
2022-10-22T23:13:41.195Z,12.50
2022-10-22T23:16:10.408Z,12.50
2022-10-22T23:18:37.145Z,12.40
2022-10-22T23:21:10.589Z,12.40
2022-10-22T23:23:37.245Z,12.30
2022-10-22T23:26:03.993Z,12.30
2022-10-22T23:28:30.610Z,12.30
2022-10-22T23:30:57.265Z,12.20
2022-10-22T23:33:23.893Z,12.20
2022-10-22T23:35:50.555Z,12.20
2022-10-22T23:38:17.195Z,12.10
2022-10-22T23:40:43.851Z,12.10
2022-10-22T23:43:10.473Z,12.10
2022-10-22T23:45:37.186Z,12.10
2022-10-22T23:48:04.003Z,12.00
2022-10-22T23:50:30.663Z,12.00
2022-10-22T23:52:57.361Z,12.00
2022-10-22T23:55:24.065Z,12.00
2022-10-22T23:57:50.813Z,12.00
